createdAt,value
2023-05-15T00:00:52.167Z,3.63
2023-05-15T00:03:20.379Z,4.43
2023-05-15T00:05:48.422Z,4.77
2023-05-15T00:08:16.363Z,4.43
2023-05-15T00:10:54.150Z,4.33
2023-05-15T00:13:28.476Z,3.30
2023-05-15T00:15:58.132Z,2.90
2023-05-15T00:18:26.124Z,2.50
2023-05-15T00:20:54.012Z,3.60
2023-05-15T00:23:21.947Z,4.33
2023-05-15T00:25:49.845Z,3.77
2023-05-15T00:28:17.794Z,6.63
2023-05-15T00:30:45.650Z,4.00
2023-05-15T00:33:15.733Z,4.70
2023-05-15T00:35:43.557Z,5.63
2023-05-15T00:38:11.490Z,4.63
2023-05-15T00:40:40.442Z,5.33
2023-05-15T00:43:09.621Z,6.20
2023-05-15T00:45:37.998Z,6.33
2023-05-15T00:48:08.673Z,6.43
2023-05-15T00:50:38.224Z,8.23
2023-05-15T00:53:07.415Z,7.83
2023-05-15T00:55:36.462Z,6.27
2023-05-15T00:58:04.915Z,7.00
2023-05-15T01:00:33.994Z,7.57
2023-05-15T01:03:02.257Z,7.07
2023-05-15T01:05:30.570Z,6.37
2023-05-15T01:08:09.192Z,6.77
2023-05-15T01:10:37.564Z,6.87
2023-05-15T01:13:07.795Z,6.77
2023-05-15T01:15:35.858Z,9.13
2023-05-15T01:18:03.832Z,8.50
2023-05-15T01:20:42.171Z,8.20
2023-05-15T01:23:20.010Z,8.43
2023-05-15T01:26:07.194Z,7.67
2023-05-15T01:28:41.168Z,8.07
2023-05-15T01:31:15.952Z,11.80
2023-05-15T01:33:47.181Z,8.67
2023-05-15T01:36:20.462Z,9.30
2023-05-15T01:38:51.735Z,7.07
2023-05-15T01:41:25.691Z,7.23
2023-05-15T01:44:00.432Z,8.37
2023-05-15T01:46:31.437Z,7.27
2023-05-15T01:49:02.885Z,9.93
2023-05-15T01:51:32.437Z,11.30
2023-05-15T01:54:01.404Z,7.07
2023-05-15T01:56:30.620Z,10.47
2023-05-15T01:59:01.418Z,9.50
2023-05-15T02:01:30.087Z,9.93
2023-05-15T02:03:58.222Z,10.43
2023-05-15T02:06:27.261Z,10.73
2023-05-15T02:08:56.037Z,12.93
2023-05-15T02:11:23.904Z,11.37
2023-05-15T02:13:52.998Z,10.60
2023-05-15T02:16:22.478Z,11.90
2023-05-15T02:18:52.855Z,12.17
2023-05-15T02:21:20.802Z,12.27
2023-05-15T02:23:48.986Z,15.17
2023-05-15T02:26:31.656Z,15.40
2023-05-15T02:29:12.264Z,15.13
2023-05-15T02:31:48.855Z,11.73
2023-05-15T02:34:26.355Z,14.67
2023-05-15T02:36:59.337Z,14.57
2023-05-15T02:39:28.441Z,14.90
2023-05-15T02:41:57.995Z,12.90
2023-05-15T02:44:27.486Z,12.57
2023-05-15T02:46:56.900Z,13.67
2023-05-15T02:49:24.922Z,11.67
2023-05-15T02:51:52.817Z,9.93
2023-05-15T02:54:21.648Z,13.30
2023-05-15T02:56:49.522Z,11.87
2023-05-15T02:59:20.046Z,10.40
2023-05-15T03:01:48.089Z,9.83
2023-05-15T03:04:17.474Z,9.77
2023-05-15T03:06:45.552Z,11.50
2023-05-15T03:09:13.467Z,10.27
2023-05-15T03:11:41.331Z,9.07
2023-05-15T03:14:09.405Z,10.47
2023-05-15T03:16:38.997Z,12.77
2023-05-15T03:19:07.121Z,10.80
2023-05-15T03:21:36.587Z,10.97
2023-05-15T03:24:04.681Z,14.50
2023-05-15T03:26:32.635Z,13.67
2023-05-15T03:29:02.337Z,14.03
2023-05-15T03:31:30.306Z,12.87
2023-05-15T03:33:58.315Z,13.60
2023-05-15T03:36:26.199Z,15.40
2023-05-15T03:38:55.420Z,16.03
2023-05-15T03:41:23.383Z,16.87
2023-05-15T03:43:51.271Z,14.67
2023-05-15T03:46:19.111Z,16.13
2023-05-15T03:48:47.404Z,13.33
2023-05-15T03:51:15.367Z,13.63
2023-05-15T03:53:43.460Z,14.57
2023-05-15T03:56:12.847Z,14.83
2023-05-15T03:58:40.740Z,17.20
2023-05-15T04:01:09.120Z,14.10
2023-05-15T04:03:37.017Z,15.33
2023-05-15T04:06:05.573Z,14.73
2023-05-15T04:08:33.466Z,16.50
2023-05-15T04:11:01.574Z,14.63
2023-05-15T04:13:30.821Z,15.83
2023-05-15T04:15:59.811Z,15.53
2023-05-15T04:18:27.744Z,16.23
2023-05-15T04:20:55.720Z,13.77
2023-05-15T04:23:23.683Z,18.33
2023-05-15T04:25:53.726Z,16.80
2023-05-15T04:28:21.889Z,16.73
2023-05-15T04:30:51.153Z,14.47
2023-05-15T04:33:19.250Z,15.03
2023-05-15T04:35:48.175Z,15.80
2023-05-15T04:38:16.144Z,17.13
2023-05-15T04:40:44.040Z,13.73
2023-05-15T04:43:12.058Z,16.23
2023-05-15T04:45:39.966Z,18.13
2023-05-15T04:48:09.274Z,17.47
2023-05-15T04:50:37.581Z,10.93
2023-05-15T04:53:05.537Z,11.37
2023-05-15T04:55:33.784Z,23.27
2023-05-15T04:58:01.767Z,27.43
2023-05-15T05:00:29.993Z,41.00
2023-05-15T05:02:57.897Z,39.43
2023-05-15T05:05:27.501Z,28.37
2023-05-15T05:07:55.427Z,26.10
2023-05-15T05:10:23.286Z,21.83
2023-05-15T05:12:51.196Z,22.67
2023-05-15T05:15:19.104Z,18.50
2023-05-15T05:17:47.528Z,19.27
2023-05-15T05:20:15.639Z,17.70
2023-05-15T05:22:44.829Z,18.03
2023-05-15T05:25:12.934Z,17.57
2023-05-15T05:27:40.807Z,18.27
2023-05-15T05:30:09.873Z,18.23
2023-05-15T05:32:37.775Z,19.13
2023-05-15T05:35:06.555Z,17.80
2023-05-15T05:37:34.473Z,19.37
2023-05-15T05:40:05.862Z,17.93
2023-05-15T05:42:33.853Z,17.63
2023-05-15T05:45:01.650Z,18.60
2023-05-15T05:47:29.527Z,20.87
2023-05-15T05:49:57.737Z,20.00
2023-05-15T05:52:25.667Z,18.13
2023-05-15T05:54:53.500Z,18.47
2023-05-15T05:57:22.814Z,18.60
2023-05-15T05:59:51.120Z,20.73
2023-05-15T06:02:19.258Z,23.90
2023-05-15T06:04:47.188Z,20.57
2023-05-15T06:07:15.062Z,20.47
2023-05-15T06:09:42.884Z,21.07
2023-05-15T06:12:11.139Z,19.50
2023-05-15T06:14:40.466Z,21.43
2023-05-15T06:17:08.418Z,19.87
2023-05-15T06:19:36.384Z,20.10
2023-05-15T06:22:04.329Z,15.57
2023-05-15T06:24:32.251Z,16.90
2023-05-15T06:27:00.293Z,19.13
2023-05-15T06:29:28.358Z,13.70
2023-05-15T06:31:57.818Z,19.00
2023-05-15T06:34:25.868Z,14.40
2023-05-15T06:36:53.762Z,15.73
2023-05-15T06:39:21.619Z,17.30
2023-05-15T06:41:49.471Z,14.80
2023-05-15T06:44:17.358Z,18.37
2023-05-15T06:46:45.222Z,13.90
2023-05-15T06:49:14.508Z,13.80
2023-05-15T06:51:42.592Z,15.93
2023-05-15T06:54:10.476Z,16.03
2023-05-15T06:56:38.298Z,16.40
2023-05-15T06:59:06.236Z,14.47
2023-05-15T07:01:34.155Z,13.93
2023-05-15T07:04:02.163Z,13.20
2023-05-15T07:06:32.075Z,15.07
2023-05-15T07:09:00.201Z,15.63
2023-05-15T07:11:29.299Z,14.60
2023-05-15T07:13:57.458Z,15.53
2023-05-15T07:16:25.336Z,13.10
2023-05-15T07:18:53.246Z,13.60
2023-05-15T07:21:21.191Z,13.03
2023-05-15T07:23:50.512Z,14.03
2023-05-15T07:26:27.912Z,18.03
2023-05-15T07:29:00.792Z,12.30
2023-05-15T07:31:29.150Z,16.20
2023-05-15T07:33:57.616Z,14.07
2023-05-15T07:36:25.570Z,14.40
2023-05-15T07:38:54.786Z,16.07
2023-05-15T07:41:22.823Z,16.33
2023-05-15T07:43:50.826Z,15.87
2023-05-15T07:46:18.685Z,18.40
2023-05-15T07:48:46.574Z,16.47
2023-05-15T07:51:14.473Z,17.50
2023-05-15T07:53:42.399Z,18.57
2023-05-15T07:56:11.934Z,19.03
2023-05-15T07:58:40.400Z,18.63
2023-05-15T08:01:08.223Z,18.97
2023-05-15T08:03:36.280Z,16.60
2023-05-15T08:06:04.398Z,18.10
2023-05-15T08:08:32.295Z,17.00
2023-05-15T08:11:00.341Z,18.90
2023-05-15T08:13:29.863Z,16.93
2023-05-15T08:15:57.757Z,19.13
2023-05-15T08:18:25.869Z,16.17
2023-05-15T08:20:53.733Z,16.37
2023-05-15T08:23:21.637Z,14.70
2023-05-15T08:25:49.599Z,16.87
2023-05-15T08:28:17.453Z,16.27
2023-05-15T08:30:46.668Z,17.70
2023-05-15T08:33:15.167Z,14.37
2023-05-15T08:35:43.386Z,16.17
2023-05-15T08:38:11.362Z,15.50
2023-05-15T08:40:40.295Z,16.70
2023-05-15T08:43:15.233Z,16.67
2023-05-15T08:48:43.357Z,17.10
2023-05-15T08:51:11.897Z,14.50
2023-05-15T08:53:39.984Z,13.13
2023-05-15T08:56:08.276Z,15.93
2023-05-15T08:58:36.714Z,13.60
2023-05-15T09:01:04.830Z,17.10
2023-05-15T09:03:33.257Z,16.03
2023-05-15T09:06:03.523Z,18.03
2023-05-15T09:08:34.470Z,18.90
2023-05-15T09:11:04.398Z,16.50
2023-05-15T09:13:32.269Z,18.00
2023-05-15T09:16:00.167Z,20.07
2023-05-15T09:18:28.153Z,18.67
2023-05-15T09:20:56.437Z,18.83
2023-05-15T09:23:27.208Z,20.03
2023-05-15T09:25:57.002Z,19.63
2023-05-15T09:28:30.029Z,18.67
2023-05-15T09:31:00.562Z,15.97
2023-05-15T09:33:30.535Z,19.40
2023-05-15T09:35:58.465Z,19.00
2023-05-15T09:38:27.832Z,17.30
2023-05-15T09:41:03.903Z,14.83
2023-05-15T09:43:35.181Z,13.37
2023-05-15T09:46:03.281Z,14.40
2023-05-15T09:48:32.460Z,13.47
2023-05-15T09:51:00.393Z,11.63
2023-05-15T09:53:29.878Z,15.10
2023-05-15T09:55:57.846Z,11.40
2023-05-15T09:58:25.811Z,11.63
2023-05-15T10:00:53.659Z,14.03
2023-05-15T10:03:22.074Z,13.30
2023-05-15T10:05:49.996Z,14.77
2023-05-15T10:08:27.112Z,12.37
2023-05-15T10:10:59.738Z,12.13
2023-05-15T10:13:29.183Z,12.37
2023-05-15T10:15:58.934Z,12.07
2023-05-15T10:18:31.616Z,12.67
2023-05-15T10:21:04.129Z,13.57
2023-05-15T10:23:34.685Z,12.30
2023-05-15T10:26:07.946Z,13.10
2023-05-15T10:28:37.342Z,14.70
2023-05-15T10:31:06.943Z,13.10
2023-05-15T10:33:38.253Z,12.70
2023-05-15T10:36:07.554Z,14.30
2023-05-15T10:38:37.096Z,11.07
2023-05-15T10:41:17.102Z,15.17
2023-05-15T10:43:46.770Z,13.97
2023-05-15T10:46:15.212Z,14.77
2023-05-15T10:48:43.318Z,14.03
2023-05-15T10:51:16.701Z,15.33
2023-05-15T10:53:44.907Z,15.57
2023-05-15T10:56:17.914Z,15.10
2023-05-15T10:58:48.085Z,16.57
2023-05-15T11:01:29.603Z,13.13
2023-05-15T11:04:08.672Z,12.73
2023-05-15T11:06:37.640Z,15.17
2023-05-15T11:09:36.953Z,14.40
2023-05-15T11:12:08.193Z,17.90
2023-05-15T11:14:41.372Z,15.07
2023-05-15T11:17:10.895Z,16.90
2023-05-15T11:19:42.169Z,13.33
2023-05-15T11:22:21.102Z,14.53
2023-05-15T11:24:52.249Z,19.30
2023-05-15T11:27:23.286Z,14.50
2023-05-15T11:30:15.390Z,14.80
2023-05-15T11:33:01.784Z,16.67
2023-05-15T11:35:32.603Z,15.47
2023-05-15T11:38:04.495Z,14.93
2023-05-15T11:40:44.479Z,15.57
2023-05-15T11:43:21.336Z,13.77
2023-05-15T11:45:52.847Z,16.50
2023-05-15T11:48:21.814Z,13.87
2023-05-15T11:50:50.759Z,14.67
2023-05-15T11:53:19.762Z,18.73
2023-05-15T11:55:47.937Z,12.80
2023-05-15T11:58:17.570Z,13.80
2023-05-15T12:00:48.337Z,16.67
2023-05-15T12:03:17.826Z,16.37
2023-05-15T12:05:57.561Z,17.17
2023-05-15T12:08:28.148Z,19.17
2023-05-15T12:10:59.382Z,17.80
2023-05-15T12:13:27.286Z,19.43
2023-05-15T12:15:57.327Z,18.23
2023-05-15T12:18:25.993Z,13.63
2023-05-15T12:20:55.070Z,14.13
2023-05-15T12:23:25.351Z,16.60
2023-05-15T12:26:00.659Z,14.07
2023-05-15T12:28:30.246Z,14.83
2023-05-15T12:31:00.624Z,11.50
2023-05-15T12:33:28.923Z,13.07
2023-05-15T12:36:01.263Z,12.63
2023-05-15T12:38:30.846Z,10.50
2023-05-15T12:40:58.990Z,8.80
2023-05-15T12:43:27.491Z,9.50
2023-05-15T12:45:56.510Z,10.47
2023-05-15T12:48:32.253Z,9.03
2023-05-15T12:51:06.590Z,12.73
2023-05-15T12:53:35.344Z,9.20
2023-05-15T12:56:04.805Z,13.87
2023-05-15T12:58:32.914Z,9.53
2023-05-15T13:01:02.955Z,9.60
2023-05-15T13:03:32.574Z,12.33
2023-05-15T13:06:03.376Z,10.03
2023-05-15T13:08:31.549Z,11.97
2023-05-15T13:11:00.952Z,9.30
2023-05-15T13:13:49.952Z,11.50
2023-05-15T13:16:22.709Z,15.50
2023-05-15T13:18:52.258Z,11.07
2023-05-15T13:21:20.438Z,13.53
2023-05-15T13:23:48.434Z,11.70
2023-05-15T13:26:16.494Z,11.13
2023-05-15T13:28:44.313Z,9.77
2023-05-15T13:31:12.516Z,12.53
2023-05-15T13:33:40.477Z,10.27
2023-05-15T13:36:10.319Z,9.97
2023-05-15T13:38:38.256Z,13.47
2023-05-15T13:41:06.270Z,14.23
2023-05-15T13:43:34.147Z,12.70
2023-05-15T13:46:02.390Z,12.07
2023-05-15T13:48:30.233Z,10.33
2023-05-15T13:50:58.045Z,12.27
2023-05-15T13:53:27.506Z,13.37
2023-05-15T13:55:55.397Z,12.27
2023-05-15T13:58:26.623Z,9.67
2023-05-15T14:00:54.800Z,10.37
2023-05-15T14:03:22.758Z,9.97
2023-05-15T14:05:51.331Z,10.70
2023-05-15T14:08:19.240Z,9.73
2023-05-15T14:10:48.457Z,13.63
2023-05-15T14:13:16.349Z,9.43
2023-05-15T14:15:44.475Z,10.20
2023-05-15T14:18:12.355Z,13.67
2023-05-15T14:20:40.221Z,10.37
2023-05-15T14:23:08.498Z,10.87
2023-05-15T14:25:36.359Z,9.77
2023-05-15T14:28:05.593Z,11.37
2023-05-15T14:30:33.523Z,8.63
2023-05-15T14:33:01.565Z,12.23
2023-05-15T14:35:29.590Z,8.13
2023-05-15T14:37:58.119Z,6.63
2023-05-15T14:40:26.173Z,10.20
2023-05-15T14:42:54.119Z,7.70
2023-05-15T14:45:23.819Z,8.00
2023-05-15T14:47:51.834Z,9.50
2023-05-15T14:50:19.722Z,7.40
2023-05-15T14:52:47.774Z,6.40
2023-05-15T14:55:16.035Z,6.47
2023-05-15T14:57:49.239Z,6.50
2023-05-15T15:00:18.238Z,7.10
2023-05-15T15:02:47.577Z,7.17
2023-05-15T15:05:15.917Z,6.73
2023-05-15T15:08:04.455Z,6.83
2023-05-15T15:10:33.216Z,6.60
2023-05-15T15:13:01.435Z,6.63
2023-05-15T15:15:29.969Z,8.67
2023-05-15T15:17:59.881Z,8.87
2023-05-15T15:20:28.693Z,7.43
2023-05-15T15:22:57.259Z,7.93
2023-05-15T15:25:25.364Z,10.23
2023-05-15T15:27:53.310Z,9.33
2023-05-15T15:30:21.169Z,8.23
2023-05-15T15:32:49.120Z,7.80
2023-05-15T15:35:18.830Z,9.03
2023-05-15T15:37:46.678Z,9.67
2023-05-15T15:40:14.646Z,7.13
2023-05-15T15:42:42.535Z,8.00
2023-05-15T15:45:10.630Z,9.93
2023-05-15T15:47:38.597Z,7.20
2023-05-15T15:50:07.216Z,7.37
2023-05-15T15:52:36.569Z,9.47
2023-05-15T15:55:04.765Z,7.57
2023-05-15T15:57:34.144Z,8.43
2023-05-15T16:00:02.149Z,10.23
2023-05-15T16:02:30.259Z,11.80
2023-05-15T16:04:58.174Z,10.23
2023-05-15T16:07:26.117Z,10.53
2023-05-15T16:10:04.159Z,10.10
2023-05-15T16:12:40.735Z,11.77
2023-05-15T16:15:21.560Z,10.07
2023-05-15T16:17:52.712Z,11.63
2023-05-15T16:20:21.189Z,13.97
2023-05-15T16:22:49.079Z,14.73
2023-05-15T16:25:18.350Z,14.57
2023-05-15T16:27:46.313Z,13.90
2023-05-15T16:30:15.283Z,14.90
2023-05-15T16:32:43.630Z,16.03
2023-05-15T16:35:11.680Z,14.00
2023-05-15T16:37:39.559Z,15.93
2023-05-15T16:40:08.783Z,18.30
2023-05-15T16:42:38.981Z,15.63
2023-05-15T16:45:08.362Z,13.17
2023-05-15T16:47:38.415Z,16.83
2023-05-15T16:50:07.401Z,17.77
2023-05-15T16:52:35.925Z,19.00
2023-05-15T16:55:04.403Z,16.83
2023-05-15T16:57:32.303Z,16.53
2023-05-15T17:00:01.569Z,16.77
2023-05-15T17:02:29.515Z,17.70
2023-05-15T17:04:57.516Z,17.90
2023-05-15T17:07:25.375Z,18.43
2023-05-15T17:09:54.911Z,18.63
2023-05-15T17:12:23.793Z,16.60
2023-05-15T17:14:51.742Z,16.47
2023-05-15T17:17:21.065Z,18.77
2023-05-15T17:19:48.947Z,16.80
2023-05-15T17:22:16.904Z,18.33
2023-05-15T17:24:51.484Z,17.40
2023-05-15T17:27:20.712Z,20.03
2023-05-15T17:29:48.870Z,16.93
2023-05-15T17:32:18.156Z,15.87
2023-05-15T17:34:47.810Z,17.50
2023-05-15T17:37:15.933Z,20.17
2023-05-15T17:39:44.206Z,17.17
2023-05-15T17:42:12.181Z,17.57
2023-05-15T17:44:40.106Z,14.60
2023-05-15T17:47:08.564Z,16.10
2023-05-15T17:49:36.754Z,17.77
2023-05-15T17:52:06.765Z,17.07
2023-05-15T17:54:34.726Z,17.50
2023-05-15T17:57:02.969Z,22.00
2023-05-15T17:59:31.261Z,20.00
2023-05-15T18:01:59.366Z,15.23
2023-05-15T18:04:27.406Z,20.67
2023-05-15T18:06:55.373Z,20.17
2023-05-15T18:09:24.905Z,18.53
2023-05-15T18:11:52.943Z,19.33
2023-05-15T18:14:20.829Z,19.57
2023-05-15T18:16:48.706Z,18.63
2023-05-15T18:19:16.743Z,17.63
2023-05-15T18:21:44.819Z,20.97
2023-05-15T18:24:12.725Z,20.50
2023-05-15T18:26:42.230Z,19.57
2023-05-15T18:29:10.169Z,19.90
2023-05-15T18:31:38.625Z,21.07
2023-05-15T18:34:06.730Z,21.50
2023-05-15T18:36:34.924Z,19.90
2023-05-15T18:39:03.704Z,19.10
2023-05-15T18:41:31.928Z,19.10
2023-05-15T18:44:01.225Z,20.30
2023-05-15T18:46:31.262Z,18.50
2023-05-15T18:48:59.754Z,21.03
2023-05-15T18:51:27.867Z,17.10
2023-05-15T18:53:55.774Z,19.10
2023-05-15T18:56:25.041Z,21.93
2023-05-15T18:58:52.984Z,20.23
2023-05-15T19:01:22.385Z,21.40
2023-05-15T19:03:50.460Z,20.37
2023-05-15T19:06:20.367Z,19.33
2023-05-15T19:08:48.952Z,20.63
2023-05-15T19:11:17.825Z,20.47
2023-05-15T19:13:45.807Z,20.43
2023-05-15T19:16:13.886Z,19.97
2023-05-15T19:18:43.241Z,19.83
2023-05-15T19:21:11.371Z,25.90
2023-05-15T19:23:39.245Z,21.80
2023-05-15T19:26:07.161Z,21.27
2023-05-15T19:28:35.648Z,20.20
2023-05-15T19:31:04.421Z,23.03
2023-05-15T19:33:32.833Z,23.77
2023-05-15T19:36:02.339Z,21.40
2023-05-15T19:38:30.173Z,23.37
2023-05-15T19:40:58.048Z,23.57
2023-05-15T19:43:25.972Z,24.53
2023-05-15T19:45:54.227Z,23.03
2023-05-15T19:48:22.157Z,23.90
2023-05-15T19:50:50.091Z,23.33
2023-05-15T19:53:19.400Z,22.13
2023-05-15T19:55:48.008Z,22.20
2023-05-15T19:58:15.870Z,21.23
2023-05-15T20:00:43.795Z,23.40
2023-05-15T20:03:11.735Z,23.67
2023-05-15T20:05:41.294Z,21.60
2023-05-15T20:08:09.350Z,21.63
2023-05-15T20:10:38.728Z,19.63
2023-05-15T20:13:06.631Z,23.27
2023-05-15T20:15:35.225Z,22.50
2023-05-15T20:18:03.144Z,21.13
2023-05-15T20:20:31.342Z,23.70
2023-05-15T20:22:59.528Z,23.27
2023-05-15T20:25:29.139Z,22.10
2023-05-15T20:27:58.933Z,20.03
2023-05-15T20:30:28.844Z,22.67
2023-05-15T20:32:56.964Z,21.90
2023-05-15T20:35:25.419Z,22.33
2023-05-15T20:37:53.590Z,23.37
2023-05-15T20:40:23.068Z,22.97
2023-05-15T20:42:51.048Z,24.30
2023-05-15T20:45:20.858Z,23.10
2023-05-15T20:47:50.290Z,21.80
2023-05-15T20:50:19.269Z,22.80
2023-05-15T20:52:47.276Z,23.67
2023-05-15T20:55:17.214Z,25.17
2023-05-15T20:57:45.480Z,23.27
2023-05-15T21:00:15.444Z,22.80
2023-05-15T21:02:46.073Z,22.80
2023-05-15T21:05:14.040Z,24.20
2023-05-15T21:07:42.193Z,23.60
2023-05-15T21:10:10.676Z,23.17
2023-05-15T21:12:38.539Z,23.47
2023-05-15T21:15:07.629Z,25.43
2023-05-15T21:17:35.540Z,22.70
2023-05-15T21:20:05.680Z,26.33
2023-05-15T21:22:33.522Z,24.83
2023-05-15T21:25:01.404Z,25.50
2023-05-15T21:27:29.278Z,22.63
2023-05-15T21:29:57.308Z,21.60
2023-05-15T21:32:25.381Z,24.37
2023-05-15T21:34:53.504Z,21.67
2023-05-15T21:37:22.734Z,19.30
2023-05-15T21:39:50.625Z,18.80
2023-05-15T21:42:18.477Z,20.77
2023-05-15T21:44:46.361Z,20.20
2023-05-15T21:47:14.261Z,22.73
2023-05-15T21:49:42.077Z,18.83
2023-05-15T21:52:10.071Z,20.37
2023-05-15T21:54:39.345Z,19.20
2023-05-15T21:57:07.162Z,16.77
2023-05-15T21:59:34.973Z,17.80
2023-05-15T22:02:02.985Z,17.13
2023-05-15T22:04:30.896Z,16.87
2023-05-15T22:06:58.753Z,15.57
2023-05-15T22:09:32.885Z,13.77
2023-05-15T22:12:02.130Z,14.87
2023-05-15T22:14:30.051Z,16.70
2023-05-15T22:16:58.000Z,17.83
2023-05-15T22:19:33.147Z,15.87
2023-05-15T22:22:02.007Z,15.13
2023-05-15T22:24:30.010Z,15.03
2023-05-15T22:26:57.852Z,15.70
2023-05-15T22:29:27.211Z,13.77
2023-05-15T22:31:55.265Z,13.60
2023-05-15T22:34:23.114Z,16.67
2023-05-15T22:36:51.029Z,20.53
2023-05-15T22:39:18.904Z,18.03
2023-05-15T22:41:47.646Z,19.23
2023-05-15T22:44:15.701Z,14.57
2023-05-15T22:46:45.170Z,16.43
2023-05-15T22:49:23.442Z,14.57
2023-05-15T22:51:51.498Z,13.30
2023-05-15T22:54:21.744Z,14.30
2023-05-15T22:56:50.253Z,13.37
2023-05-15T22:59:18.365Z,14.33
2023-05-15T23:01:49.217Z,14.40
2023-05-15T23:04:18.260Z,11.57
2023-05-15T23:06:46.369Z,12.67
2023-05-15T23:09:14.306Z,17.80
2023-05-15T23:11:42.296Z,15.20
2023-05-15T23:14:12.148Z,14.43
2023-05-15T23:16:40.090Z,13.50
2023-05-15T23:19:09.874Z,14.20
2023-05-15T23:21:38.003Z,16.97
2023-05-15T23:24:06.491Z,14.50
2023-05-15T23:26:34.506Z,13.87
2023-05-15T23:29:02.683Z,15.90
2023-05-15T23:31:31.067Z,16.53
2023-05-15T23:33:59.065Z,17.43
2023-05-15T23:36:28.375Z,15.43
2023-05-15T23:38:56.290Z,16.40
2023-05-15T23:41:24.253Z,18.93
2023-05-15T23:43:52.303Z,15.53
2023-05-15T23:46:20.304Z,16.80
2023-05-15T23:48:48.445Z,15.23
2023-05-15T23:51:16.490Z,15.97
2023-05-15T23:53:45.826Z,16.00
2023-05-15T23:56:13.885Z,13.43
2023-05-15T23:58:42.440Z,15.57
